createdAt,value
2022-08-28T00:00:40.714Z,86129.13
2022-08-28T00:03:10.920Z,86128.38
2022-08-28T00:05:40.015Z,86125.78
2022-08-28T00:08:12.747Z,86059.44
2022-08-28T00:10:42.336Z,86108.53
2022-08-28T00:13:19.213Z,86119.19
2022-08-28T00:15:51.091Z,86113.53
2022-08-28T00:18:20.540Z,86106.66
2022-08-28T00:20:49.646Z,86102.13
2022-08-28T00:23:19.095Z,86107.28
2022-08-28T00:25:46.671Z,86078.00
2022-08-28T00:28:24.085Z,86077.41
2022-08-28T00:30:57.232Z,86112.19
2022-08-28T00:33:33.875Z,86108.00
2022-08-28T00:36:02.502Z,86094.41
2022-08-28T00:38:30.159Z,86045.28
2022-08-28T00:41:03.838Z,86113.97
2022-08-28T00:43:34.490Z,86118.78
2022-08-28T00:46:05.461Z,86113.66
2022-08-28T00:48:33.805Z,86094.72
2022-08-28T00:51:23.127Z,86092.13
2022-08-28T00:53:55.577Z,86108.84
2022-08-28T00:56:26.676Z,86114.13
2022-08-28T00:58:57.007Z,86088.81
2022-08-28T01:01:25.137Z,86110.03
2022-08-28T01:03:52.855Z,86095.09
2022-08-28T01:06:22.079Z,86079.94
2022-08-28T01:08:52.257Z,86089.50
2022-08-28T01:11:21.764Z,86073.69
2022-08-28T01:13:51.322Z,86093.66
2022-08-28T01:16:28.375Z,86109.59
2022-08-28T01:19:00.981Z,86103.19
2022-08-28T01:21:54.076Z,86111.66
2022-08-28T01:24:21.874Z,86095.25
2022-08-28T01:26:49.466Z,86113.94
2022-08-28T01:29:17.283Z,86122.84
2022-08-28T01:31:44.689Z,86111.19
2022-08-28T01:34:14.048Z,86108.91
2022-08-28T01:36:43.264Z,86079.13
2022-08-28T01:39:15.733Z,86121.47
2022-08-28T01:41:46.510Z,86123.63
2022-08-28T01:44:18.146Z,86105.06
2022-08-28T01:46:46.215Z,86122.84
2022-08-28T01:49:14.644Z,86113.44
2022-08-28T01:51:42.793Z,86122.38
2022-08-28T01:54:12.506Z,86083.75
2022-08-28T01:56:42.637Z,86126.22
2022-08-28T01:59:11.605Z,86119.56
2022-08-28T02:01:40.231Z,86125.91
2022-08-28T02:04:07.880Z,86121.81
2022-08-28T02:06:36.696Z,86106.44
2022-08-28T02:09:06.456Z,86122.19
2022-08-28T02:11:46.604Z,86129.09
2022-08-28T02:14:16.369Z,86125.09
2022-08-28T02:16:43.933Z,86109.84
2022-08-28T02:19:12.627Z,86121.44
2022-08-28T02:21:40.295Z,86125.78
2022-08-28T02:24:09.701Z,86119.50
2022-08-28T02:26:37.296Z,86112.13
2022-08-28T02:29:05.584Z,86104.06
2022-08-28T02:31:33.364Z,86129.25
2022-08-28T02:34:01.758Z,86136.38
2022-08-28T02:36:29.395Z,86136.44
2022-08-28T02:38:58.047Z,86071.47
2022-08-28T02:41:26.437Z,86124.63
2022-08-28T02:43:55.225Z,86113.06
2022-08-28T02:46:22.633Z,86126.88
2022-08-28T02:48:50.965Z,86133.69
2022-08-28T02:51:20.238Z,86132.31
2022-08-28T02:53:48.252Z,86135.06
2022-08-28T02:56:15.978Z,86132.97
2022-08-28T02:58:43.740Z,86109.09
2022-08-28T03:01:13.552Z,86132.31
2022-08-28T03:03:42.045Z,86119.28
2022-08-28T03:06:12.682Z,86102.13
2022-08-28T03:08:44.648Z,86092.00
2022-08-28T03:11:13.278Z,86081.59
2022-08-28T03:13:42.076Z,86123.25
2022-08-28T03:16:09.737Z,86100.75
2022-08-28T03:18:37.389Z,86117.91
2022-08-28T03:21:05.759Z,86128.16
2022-08-28T03:23:33.125Z,86128.09
2022-08-28T03:26:10.782Z,86089.81
2022-08-28T03:28:42.085Z,86129.59
2022-08-28T03:31:12.336Z,86124.75
2022-08-28T03:33:42.841Z,86125.44
2022-08-28T03:36:13.780Z,86120.72
2022-08-28T03:38:42.088Z,86121.63
2022-08-28T03:41:13.864Z,86128.97
2022-08-28T03:43:44.808Z,86123.56
2022-08-28T03:46:19.435Z,86121.69
2022-08-28T03:48:47.485Z,86131.19
2022-08-28T03:51:18.868Z,86117.41
2022-08-28T03:53:49.804Z,86136.09
2022-08-28T03:56:22.109Z,86104.78
2022-08-28T03:58:52.846Z,86109.44
2022-08-28T04:01:21.534Z,86138.94
2022-08-28T04:03:49.506Z,86130.84
2022-08-28T04:06:17.087Z,86130.56
2022-08-28T04:08:44.952Z,86132.00
2022-08-28T04:11:13.394Z,86121.25
2022-08-28T04:13:41.898Z,86102.13
2022-08-28T04:16:12.714Z,86095.84
2022-08-28T04:18:42.256Z,86102.13
2022-08-28T04:21:29.139Z,86132.56
2022-08-28T04:23:58.972Z,86117.72
2022-08-28T04:26:28.457Z,86141.00
2022-08-28T04:28:56.298Z,86099.28
2022-08-28T04:31:31.373Z,86146.59
2022-08-28T04:34:02.544Z,86145.22
2022-08-28T04:36:30.156Z,86154.94
2022-08-28T04:38:59.509Z,86126.78
2022-08-28T04:41:27.840Z,86160.47
2022-08-28T04:43:57.914Z,86110.22
2022-08-28T04:46:25.941Z,86129.50
2022-08-28T04:48:53.746Z,86163.03
2022-08-28T04:51:21.441Z,86139.19
2022-08-28T04:53:49.305Z,86070.09
2022-08-28T04:56:17.315Z,86152.47
2022-08-28T04:58:44.922Z,86165.66
2022-08-28T05:01:21.828Z,86163.38
2022-08-28T05:03:53.175Z,86107.88
2022-08-28T05:06:22.076Z,86141.28
2022-08-28T05:08:49.881Z,86125.25
2022-08-28T05:11:27.292Z,86169.69
2022-08-28T05:14:12.665Z,86085.53
2022-08-28T05:16:45.845Z,86165.28
2022-08-28T05:19:13.635Z,86148.41
2022-08-28T05:21:41.441Z,86166.06
2022-08-28T05:24:09.798Z,86124.94
2022-08-28T05:26:40.197Z,86169.25
2022-08-28T05:29:08.766Z,86107.91
2022-08-28T05:31:39.318Z,86174.78
2022-08-28T05:34:07.992Z,86147.38
2022-08-28T05:36:37.134Z,86172.97
2022-08-28T05:39:11.120Z,86180.47
2022-08-28T05:41:44.767Z,86176.69
2022-08-28T05:44:15.606Z,86153.00
2022-08-28T05:46:46.965Z,86165.66
2022-08-28T05:49:16.065Z,86142.84
2022-08-28T05:51:44.529Z,86173.53
2022-08-28T05:54:13.066Z,86157.53
2022-08-28T05:56:41.290Z,86173.41
2022-08-28T05:59:11.040Z,86185.56
2022-08-28T06:01:47.271Z,86188.13
2022-08-28T06:04:19.130Z,86186.41
2022-08-28T06:06:46.894Z,86186.09
2022-08-28T06:09:15.555Z,86176.34
2022-08-28T06:11:47.174Z,86166.09
2022-08-28T06:14:19.774Z,86182.41
2022-08-28T06:16:53.289Z,86187.59
2022-08-28T06:19:25.733Z,86154.13
2022-08-28T06:21:57.791Z,86158.00
2022-08-28T06:24:27.653Z,86156.50
2022-08-28T06:26:58.178Z,86168.47
2022-08-28T06:29:27.804Z,86178.31
2022-08-28T06:31:58.700Z,86179.16
2022-08-28T06:34:34.133Z,86176.81
2022-08-28T06:37:02.180Z,86161.84
2022-08-28T06:39:29.559Z,86151.44
2022-08-28T06:41:57.767Z,86187.41
2022-08-28T06:44:25.083Z,86175.56
2022-08-28T06:46:54.893Z,86179.84
2022-08-28T06:49:23.563Z,86179.53
2022-08-28T06:51:51.511Z,86182.59
2022-08-28T06:54:23.298Z,86185.69
2022-08-28T06:56:53.265Z,86180.66
2022-08-28T06:59:21.314Z,86191.69
2022-08-28T07:01:49.523Z,86169.75
2022-08-28T07:04:17.202Z,86189.56
2022-08-28T07:06:54.253Z,86164.25
2022-08-28T07:09:24.274Z,86187.25
2022-08-28T07:11:52.603Z,86186.03
2022-08-28T07:14:20.084Z,86160.56
2022-08-28T07:16:49.324Z,86191.53
2022-08-28T07:19:18.358Z,86184.38
2022-08-28T07:21:48.152Z,86201.34
2022-08-28T07:24:18.614Z,86175.41
2022-08-28T07:26:48.213Z,86204.19
2022-08-28T07:29:16.306Z,86193.91
2022-08-28T07:31:49.541Z,86186.91
2022-08-28T07:34:19.880Z,86156.50
2022-08-28T07:36:48.250Z,86189.47
2022-08-28T07:39:15.911Z,86157.38
2022-08-28T07:41:43.588Z,86145.81
2022-08-28T07:44:32.341Z,86194.97
2022-08-28T07:47:04.402Z,86200.06
2022-08-28T07:49:34.369Z,86154.13
2022-08-28T07:52:02.207Z,86206.78
2022-08-28T07:54:31.912Z,86190.63
2022-08-28T07:56:59.787Z,86199.09
2022-08-28T07:59:28.784Z,86193.53
2022-08-28T08:02:04.661Z,86185.34
2022-08-28T08:04:32.089Z,86203.66
2022-08-28T08:07:03.628Z,86196.44
2022-08-28T08:09:31.879Z,86176.59
2022-08-28T08:12:00.398Z,86194.47
2022-08-28T08:14:29.776Z,86106.03
2022-08-28T08:16:57.359Z,86165.47
2022-08-28T08:19:28.687Z,86133.41
2022-08-28T08:22:02.541Z,86180.72
2022-08-28T08:24:31.094Z,86158.53
2022-08-28T08:27:02.038Z,86164.03
2022-08-28T08:29:35.961Z,86171.13
2022-08-28T08:32:08.012Z,86174.38
2022-08-28T08:34:39.753Z,86180.78
2022-08-28T08:37:07.602Z,86146.88
2022-08-28T08:39:36.644Z,86202.53
2022-08-28T08:42:08.200Z,86195.38
2022-08-28T08:44:38.974Z,86196.94
2022-08-28T08:47:14.073Z,86198.75
2022-08-28T08:49:51.024Z,86199.00
2022-08-28T08:52:37.903Z,86203.31
2022-08-28T08:55:21.779Z,86199.25
2022-08-28T08:58:08.374Z,86198.91
2022-08-28T09:01:02.169Z,86182.03
2022-08-28T09:03:44.853Z,86198.38
2022-08-28T09:06:24.447Z,86184.66
2022-08-28T09:08:59.597Z,86198.84
2022-08-28T09:11:33.446Z,86195.22
2022-08-28T09:14:20.559Z,86191.59
2022-08-28T09:16:48.775Z,86185.47
2022-08-28T09:19:22.347Z,86191.34
2022-08-28T09:21:51.952Z,86180.50
2022-08-28T09:24:23.655Z,86163.28
2022-08-28T09:27:04.528Z,86195.88
2022-08-28T09:29:38.831Z,86189.19
2022-08-28T09:32:26.564Z,86192.91
2022-08-28T09:35:12.302Z,86204.00
2022-08-28T09:37:41.485Z,86168.50
2022-08-28T09:40:52.853Z,86202.41
2022-08-28T09:43:28.855Z,86160.13
2022-08-28T09:46:05.712Z,86188.50
2022-08-28T09:48:43.583Z,86207.75
2022-08-28T09:51:15.535Z,86191.56
2022-08-28T09:53:58.111Z,86187.25
2022-08-28T09:56:36.305Z,86197.00
2022-08-28T09:59:12.083Z,86182.28
2022-08-28T10:01:52.530Z,86208.88
2022-08-28T10:04:47.607Z,86208.31
2022-08-28T10:07:15.770Z,86208.56
2022-08-28T10:10:09.473Z,86192.16
2022-08-28T10:12:38.834Z,86208.56
2022-08-28T10:15:13.676Z,86199.03
2022-08-28T10:18:07.330Z,86198.78
2022-08-28T10:20:37.641Z,86200.63
2022-08-28T10:23:25.286Z,86199.69
2022-08-28T10:26:00.469Z,86200.00
2022-08-28T10:29:03.394Z,86198.72
2022-08-28T10:31:41.121Z,86199.75
2022-08-28T10:34:34.702Z,86180.88
2022-08-28T10:37:31.384Z,86142.06
2022-08-28T10:40:04.711Z,86200.75
2022-08-28T10:42:40.860Z,86198.81
2022-08-28T10:45:23.365Z,86150.84
2022-08-28T10:47:59.939Z,86195.84
2022-08-28T10:50:34.785Z,86189.94
2022-08-28T10:53:07.323Z,86161.06
2022-08-28T10:55:45.331Z,86167.91
2022-08-28T10:58:24.331Z,86153.56
2022-08-28T11:01:02.326Z,86185.25
2022-08-28T11:03:35.240Z,86139.63
2022-08-28T11:06:20.505Z,86189.41
2022-08-28T11:08:58.816Z,86184.53
2022-08-28T11:12:01.564Z,86184.06
2022-08-28T11:14:48.121Z,86185.97
2022-08-28T11:17:26.011Z,86185.44
2022-08-28T11:20:07.841Z,86185.28
2022-08-28T11:22:47.990Z,86193.13
2022-08-28T11:25:42.747Z,86193.13
2022-08-28T11:28:25.368Z,86194.59
2022-08-28T11:30:59.496Z,86190.34
2022-08-28T11:33:42.366Z,86190.47
2022-08-28T11:36:30.195Z,86190.47
2022-08-28T11:38:58.715Z,86189.41
2022-08-28T11:41:39.251Z,86188.72
2022-08-28T11:44:09.941Z,86187.59
2022-08-28T11:46:52.484Z,86185.25
2022-08-28T11:49:26.794Z,86190.03
2022-08-28T11:52:10.983Z,86183.75
2022-08-28T11:54:55.813Z,86140.25
2022-08-28T11:57:28.899Z,86185.69
2022-08-28T12:00:03.929Z,86191.44
2022-08-28T12:02:40.622Z,86186.19
2022-08-28T12:05:09.641Z,86197.97
2022-08-28T12:07:48.634Z,86124.09
2022-08-28T12:10:23.455Z,86187.81
2022-08-28T12:13:03.301Z,86173.56
2022-08-28T12:15:32.711Z,86198.91
2022-08-28T12:18:13.278Z,86195.88
2022-08-28T12:20:51.777Z,86193.28
2022-08-28T12:23:37.570Z,86195.44
2022-08-28T12:26:14.767Z,86198.53
2022-08-28T12:28:57.051Z,86206.47
2022-08-28T12:32:12.319Z,86198.19
2022-08-28T12:34:55.440Z,86207.00
2022-08-28T12:37:53.087Z,86200.72
2022-08-28T12:40:33.818Z,86173.41
2022-08-28T12:43:15.224Z,86207.56
2022-08-28T12:45:57.297Z,86210.50
2022-08-28T12:48:32.053Z,86209.91
2022-08-28T12:51:11.104Z,86200.75
2022-08-28T12:53:49.287Z,86206.34
2022-08-28T12:56:20.029Z,86202.22
2022-08-28T12:58:50.042Z,86198.56
2022-08-28T13:01:31.553Z,86187.75
2022-08-28T13:03:59.622Z,86196.81
2022-08-28T13:06:28.997Z,86171.16
2022-08-28T13:09:07.061Z,86191.41
2022-08-28T13:11:40.614Z,86200.06
2022-08-28T13:14:09.162Z,86177.19
2022-08-28T13:16:46.736Z,86199.47
2022-08-28T13:19:25.934Z,86193.03
2022-08-28T13:22:02.001Z,86183.66
2022-08-28T13:24:31.973Z,86201.06
2022-08-28T13:27:07.709Z,86192.81
2022-08-28T13:29:37.622Z,86152.84
2022-08-28T13:32:15.681Z,86162.16
2022-08-28T13:35:17.730Z,86196.75
2022-08-28T13:37:50.676Z,86194.81
2022-08-28T13:41:05.986Z,86186.56
2022-08-28T13:43:21.723Z,86176.16
2022-08-28T13:45:51.274Z,86154.88
2022-08-28T13:48:24.712Z,86189.94
2022-08-28T13:50:59.454Z,86178.41
2022-08-28T13:53:27.092Z,86160.50
2022-08-28T13:55:54.634Z,86171.47
2022-08-28T13:58:22.121Z,86171.28
2022-08-28T14:00:51.099Z,86188.34
2022-08-28T14:03:38.232Z,86179.06
2022-08-28T14:06:18.580Z,86165.38
2022-08-28T14:09:17.785Z,86191.06
2022-08-28T14:11:48.683Z,86153.19
2022-08-28T14:14:24.122Z,86150.94
2022-08-28T14:16:56.802Z,86140.19
2022-08-28T14:19:26.167Z,86174.34
2022-08-28T14:21:54.131Z,86180.44
2022-08-28T14:24:24.947Z,86102.63
2022-08-28T14:26:53.381Z,86198.91
2022-08-28T14:29:21.608Z,86210.84
2022-08-28T14:31:49.164Z,86216.00
2022-08-28T14:34:22.534Z,86181.91
2022-08-28T14:36:55.194Z,86201.22
2022-08-28T14:39:27.789Z,86185.59
2022-08-28T14:41:55.710Z,86181.56
2022-08-28T14:44:24.792Z,86154.59
2022-08-28T14:46:56.936Z,86176.66
2022-08-28T14:49:25.968Z,86190.59
2022-08-28T14:51:54.387Z,86202.69
2022-08-28T14:54:24.390Z,86171.22
2022-08-28T14:56:53.839Z,86202.53
2022-08-28T14:59:25.309Z,86202.94
2022-08-28T15:01:55.793Z,86169.91
2022-08-28T15:04:26.227Z,86189.25
2022-08-28T15:06:59.512Z,86189.72
2022-08-28T15:09:28.307Z,86169.59
2022-08-28T15:11:56.275Z,86179.53
2022-08-28T15:14:24.121Z,86176.91
2022-08-28T15:16:51.576Z,86185.06
2022-08-28T15:19:20.133Z,86150.88
2022-08-28T15:21:51.236Z,86188.97
2022-08-28T15:24:22.589Z,86183.41
2022-08-28T15:26:50.645Z,86148.97
2022-08-28T15:29:18.629Z,86152.22
2022-08-28T15:31:49.773Z,86141.41
2022-08-28T15:34:23.724Z,86184.63
2022-08-28T15:36:56.062Z,86156.75
2022-08-28T15:39:44.706Z,86145.00
2022-08-28T15:42:14.487Z,86165.13
2022-08-28T15:44:42.563Z,86183.59
2022-08-28T15:47:12.682Z,86167.25
2022-08-28T15:49:44.756Z,86137.09
2022-08-28T15:52:25.691Z,86182.72
2022-08-28T15:54:55.051Z,86160.16
2022-08-28T15:57:24.232Z,86167.53
2022-08-28T15:59:55.191Z,86187.34
2022-08-28T16:02:25.055Z,86165.75
2022-08-28T16:04:55.368Z,86195.72
2022-08-28T16:07:23.538Z,86174.31
2022-08-28T16:09:52.936Z,86152.59
2022-08-28T16:12:21.025Z,86162.53
2022-08-28T16:14:50.510Z,86185.06
2022-08-28T16:17:19.994Z,86184.56
2022-08-28T16:19:47.959Z,86159.69
2022-08-28T16:22:18.635Z,86173.91
2022-08-28T16:24:46.676Z,86191.31
2022-08-28T16:27:15.737Z,86168.06
2022-08-28T16:29:45.578Z,86196.34
2022-08-28T16:32:13.314Z,86165.69
2022-08-28T16:34:44.619Z,86155.41
2022-08-28T16:37:13.344Z,86199.63
2022-08-28T16:39:46.859Z,86200.47
2022-08-28T16:42:15.643Z,86211.28
2022-08-28T16:44:46.904Z,86212.63
2022-08-28T16:47:14.968Z,86184.91
2022-08-28T16:49:43.328Z,86189.75
2022-08-28T16:52:10.966Z,86197.16
2022-08-28T16:54:38.634Z,86200.16
2022-08-28T16:57:21.090Z,86212.44
2022-08-28T16:59:52.959Z,86219.50
2022-08-28T17:02:26.495Z,86182.13
2022-08-28T17:05:00.567Z,86221.06
2022-08-28T17:07:29.076Z,86206.41
2022-08-28T17:09:56.572Z,86198.06
2022-08-28T17:12:24.440Z,86205.03
2022-08-28T17:14:51.853Z,86200.53
2022-08-28T17:17:19.576Z,86229.84
2022-08-28T17:19:46.830Z,86212.66
2022-08-28T17:22:32.968Z,86208.91
2022-08-28T17:25:02.349Z,86224.59
2022-08-28T17:27:32.209Z,86227.16
2022-08-28T17:30:02.157Z,86200.56
2022-08-28T17:32:29.912Z,86144.44
2022-08-28T17:34:57.887Z,86241.13
2022-08-28T17:37:25.530Z,86215.22
2022-08-28T17:39:53.664Z,86226.66
2022-08-28T17:42:21.720Z,86229.88
2022-08-28T17:44:49.287Z,86240.09
2022-08-28T17:47:17.193Z,86246.94
2022-08-28T17:49:49.324Z,86255.88
2022-08-28T17:52:16.896Z,86218.28
2022-08-28T17:54:44.958Z,86251.69
2022-08-28T17:57:12.361Z,86248.88
2022-08-28T17:59:40.442Z,86248.19
2022-08-28T18:02:08.049Z,86220.75
2022-08-28T18:04:37.094Z,86255.97
2022-08-28T18:07:04.581Z,86226.72
2022-08-28T18:09:32.760Z,86259.53
2022-08-28T18:12:00.154Z,86268.16
2022-08-28T18:14:28.452Z,86246.56
2022-08-28T18:16:56.759Z,86264.66
2022-08-28T18:19:25.434Z,86265.34
2022-08-28T18:21:53.114Z,86268.38
2022-08-28T18:24:21.889Z,86249.69
2022-08-28T18:26:49.687Z,86215.50
2022-08-28T18:29:17.961Z,86267.38
2022-08-28T18:31:46.017Z,86279.75
2022-08-28T18:34:14.328Z,86274.19
2022-08-28T18:36:42.411Z,86275.72
2022-08-28T18:39:11.570Z,86249.91
2022-08-28T18:41:43.871Z,86258.72
2022-08-28T18:44:15.732Z,86278.59
2022-08-28T18:46:45.141Z,86271.47
2022-08-28T18:49:13.853Z,86287.03
2022-08-28T18:51:43.764Z,86250.78
2022-08-28T18:54:16.394Z,86279.97
2022-08-28T18:56:45.632Z,86247.88
2022-08-28T18:59:13.359Z,86223.25
2022-08-28T19:01:41.563Z,86273.75
2022-08-28T19:04:09.022Z,86194.06
2022-08-28T19:06:37.409Z,86265.13
2022-08-28T19:09:05.933Z,86267.78
2022-08-28T19:11:36.322Z,86228.72
2022-08-28T19:14:04.285Z,86188.84
2022-08-28T19:16:32.473Z,86273.69
2022-08-28T19:19:02.241Z,86218.56
2022-08-28T19:21:30.446Z,86279.59
2022-08-28T19:24:00.540Z,86282.63
2022-08-28T19:26:28.361Z,86217.94
2022-08-28T19:28:56.333Z,86241.97
2022-08-28T19:31:26.121Z,86281.59
2022-08-28T19:33:53.865Z,86267.13
2022-08-28T19:36:21.988Z,86286.63
2022-08-28T19:38:49.502Z,86280.31
2022-08-28T19:41:18.294Z,86289.44
2022-08-28T19:43:45.806Z,86290.25
2022-08-28T19:46:19.718Z,86260.97
2022-08-28T19:48:52.847Z,86299.44
2022-08-28T19:51:24.095Z,86300.91
2022-08-28T19:53:57.985Z,86298.59
2022-08-28T19:56:29.479Z,86264.00
2022-08-28T19:58:59.464Z,86299.69
2022-08-28T20:01:33.078Z,86286.56
2022-08-28T20:04:01.274Z,86302.63
2022-08-28T20:06:31.605Z,86266.28
2022-08-28T20:08:59.776Z,86302.03
2022-08-28T20:11:30.155Z,86302.88
2022-08-28T20:14:05.556Z,86278.31
2022-08-28T20:16:36.798Z,86299.31
2022-08-28T20:19:07.627Z,86286.75
2022-08-28T20:21:37.841Z,86304.13
2022-08-28T20:24:10.840Z,86228.03
2022-08-28T20:26:38.611Z,86255.91
2022-08-28T20:29:07.707Z,86282.78
2022-08-28T20:31:37.541Z,86311.56
2022-08-28T20:34:05.054Z,86296.91
2022-08-28T20:36:33.718Z,86301.84
2022-08-28T20:39:04.949Z,86320.75
2022-08-28T20:41:36.158Z,86263.09
2022-08-28T20:44:08.134Z,86287.84
2022-08-28T20:46:40.956Z,86324.81
2022-08-28T20:49:14.796Z,86316.34
2022-08-28T20:51:54.694Z,86292.63
2022-08-28T20:54:27.274Z,86320.75
2022-08-28T20:56:57.612Z,86301.66
2022-08-28T20:59:28.802Z,86320.19
2022-08-28T21:02:17.345Z,86327.78
2022-08-28T21:04:46.751Z,86327.78
2022-08-28T21:07:16.297Z,86301.03
2022-08-28T21:10:05.373Z,86314.88
2022-08-28T21:12:32.093Z,86301.03
2022-08-28T21:15:00.181Z,86325.00
2022-08-28T21:17:29.571Z,86254.72
2022-08-28T21:20:05.706Z,86252.81
2022-08-28T21:22:35.311Z,86326.56
2022-08-28T21:25:09.887Z,86284.25
2022-08-28T21:27:38.295Z,86296.03
2022-08-28T21:30:07.666Z,86323.13
2022-08-28T21:32:35.981Z,86300.59
2022-08-28T21:35:05.299Z,86259.50
2022-08-28T21:37:32.956Z,86286.16
2022-08-28T21:40:01.494Z,86284.25
2022-08-28T21:42:29.991Z,86312.13
2022-08-28T21:44:58.933Z,86289.78
2022-08-28T21:47:27.584Z,86278.94
2022-08-28T21:49:57.549Z,86314.50
2022-08-28T21:52:30.457Z,86319.94
2022-08-28T21:55:01.153Z,86289.34
2022-08-28T21:57:30.202Z,86320.22
2022-08-28T21:59:59.199Z,86301.69
2022-08-28T22:02:28.698Z,86308.47
2022-08-28T22:04:57.934Z,86278.94
2022-08-28T22:07:28.023Z,86310.50
2022-08-28T22:09:59.066Z,86309.22
2022-08-28T22:12:27.945Z,86279.84
2022-08-28T22:14:59.526Z,86304.38
2022-08-28T22:17:28.183Z,86296.38
2022-08-28T22:19:56.648Z,86308.13
2022-08-28T22:22:44.019Z,86305.31
2022-08-28T22:25:12.452Z,86300.00
2022-08-28T22:27:41.425Z,86311.09
2022-08-28T22:30:10.625Z,86294.59
2022-08-28T22:32:38.839Z,86309.78
2022-08-28T22:35:08.435Z,86306.44
2022-08-28T22:37:36.164Z,86311.38
2022-08-28T22:40:09.522Z,86278.81
2022-08-28T22:42:44.085Z,86276.19
2022-08-28T22:45:12.100Z,86309.25
2022-08-28T22:47:40.280Z,86274.75
2022-08-28T22:50:09.281Z,86304.03
2022-08-28T22:52:37.465Z,86309.13
2022-08-28T22:55:12.535Z,86272.84
2022-08-28T22:57:40.423Z,86308.34
2022-08-28T23:00:13.072Z,86302.66
2022-08-28T23:02:42.943Z,86274.00
2022-08-28T23:05:11.306Z,86285.22
2022-08-28T23:07:39.225Z,86292.56
2022-08-28T23:10:08.310Z,86282.78
2022-08-28T23:12:37.408Z,86283.06
2022-08-28T23:15:08.158Z,86310.63
2022-08-28T23:17:38.383Z,86305.16
2022-08-28T23:20:11.531Z,86313.63
2022-08-28T23:22:40.834Z,86270.19
2022-08-28T23:25:09.174Z,86279.84
2022-08-28T23:27:38.255Z,86280.03
2022-08-28T23:30:07.318Z,86319.16
2022-08-28T23:32:37.167Z,86301.31
2022-08-28T23:35:07.334Z,86289.38
2022-08-28T23:37:37.695Z,86311.47
2022-08-28T23:40:09.521Z,86320.97
2022-08-28T23:42:38.381Z,86310.09
2022-08-28T23:45:06.857Z,86316.94
2022-08-28T23:47:40.386Z,86307.28
2022-08-28T23:50:11.613Z,86307.28
2022-08-28T23:52:40.459Z,86275.69
2022-08-28T23:55:09.809Z,86293.44
2022-08-28T23:57:38.558Z,86313.81
